createdAt,value
2023-07-07T00:00:35.285Z,72.30
2023-07-07T00:03:03.145Z,72.20
2023-07-07T00:05:31.938Z,72.30
2023-07-07T00:07:59.705Z,72.30
2023-07-07T00:10:28.939Z,72.20
2023-07-07T00:12:56.825Z,72.30
2023-07-07T00:15:24.595Z,72.50
2023-07-07T00:17:52.421Z,72.50
2023-07-07T00:20:22.502Z,72.50
2023-07-07T00:22:50.254Z,72.60
2023-07-07T00:25:18.437Z,72.50
2023-07-07T00:27:47.550Z,72.50
2023-07-07T00:30:15.890Z,72.50
2023-07-07T00:32:43.812Z,72.50
2023-07-07T00:35:11.692Z,72.50
2023-07-07T00:37:39.700Z,72.60
2023-07-07T00:40:08.766Z,72.80
2023-07-07T00:42:36.545Z,72.80
2023-07-07T00:45:17.944Z,72.80
2023-07-07T00:47:51.482Z,73.00
2023-07-07T00:50:22.284Z,72.80
2023-07-07T00:52:50.168Z,73.00
2023-07-07T00:55:22.009Z,73.00
2023-07-07T00:57:50.260Z,72.90
2023-07-07T01:00:19.988Z,73.00
2023-07-07T01:02:55.395Z,73.20
2023-07-07T01:05:25.663Z,73.10
2023-07-07T01:07:54.161Z,73.80
2023-07-07T01:10:22.993Z,73.10
2023-07-07T01:12:52.310Z,73.30
2023-07-07T01:15:23.147Z,73.50
2023-07-07T01:18:06.820Z,73.30
2023-07-07T01:20:38.559Z,73.20
2023-07-07T01:23:36.335Z,73.30
2023-07-07T01:26:33.470Z,73.60
2023-07-07T01:29:15.830Z,73.70
2023-07-07T01:31:50.196Z,73.60
2023-07-07T01:34:18.646Z,73.70
2023-07-07T01:36:46.612Z,73.90
2023-07-07T01:39:14.957Z,73.90
2023-07-07T01:41:51.343Z,73.80
2023-07-07T01:44:25.804Z,74.00
2023-07-07T01:46:59.260Z,74.00
2023-07-07T01:49:32.153Z,74.00
2023-07-07T01:52:05.265Z,73.90
2023-07-07T01:54:36.316Z,74.00
2023-07-07T01:57:04.998Z,74.00
2023-07-07T01:59:35.067Z,74.00
2023-07-07T02:02:04.652Z,73.90
2023-07-07T02:04:32.530Z,74.00
2023-07-07T02:07:00.386Z,74.00
2023-07-07T02:09:28.615Z,74.00
2023-07-07T02:11:56.366Z,74.10
2023-07-07T02:14:24.195Z,74.30
2023-07-07T02:16:51.970Z,74.30
2023-07-07T02:19:21.076Z,74.30
2023-07-07T02:21:48.885Z,74.20
2023-07-07T02:24:16.652Z,74.40
2023-07-07T02:26:44.434Z,74.50
2023-07-07T02:29:12.215Z,74.40
2023-07-07T02:31:39.970Z,74.40
2023-07-07T02:34:07.737Z,74.40
2023-07-07T02:36:37.743Z,74.40
2023-07-07T02:39:05.952Z,74.40
2023-07-07T02:41:33.695Z,74.50
2023-07-07T02:44:01.572Z,74.50
2023-07-07T02:46:29.444Z,74.50
2023-07-07T02:48:57.210Z,74.70
2023-07-07T02:51:24.948Z,74.50
2023-07-07T02:53:54.027Z,74.60
2023-07-07T02:56:21.807Z,74.60
2023-07-07T02:58:49.565Z,74.80
2023-07-07T03:01:20.917Z,75.00
2023-07-07T03:03:51.274Z,74.90
2023-07-07T03:06:21.488Z,75.00
2023-07-07T03:08:49.803Z,75.00
2023-07-07T03:11:21.039Z,75.80
2023-07-07T03:13:49.792Z,75.20
2023-07-07T03:16:21.829Z,75.20
2023-07-07T03:18:50.638Z,75.20
2023-07-07T03:21:19.135Z,75.20
2023-07-07T03:23:46.945Z,75.10
2023-07-07T03:26:17.279Z,75.10
2023-07-07T03:28:46.600Z,75.10
2023-07-07T03:31:16.202Z,75.10
2023-07-07T03:33:46.124Z,75.00
2023-07-07T03:36:14.948Z,75.10
2023-07-07T03:38:43.896Z,75.20
2023-07-07T03:41:14.977Z,75.20
2023-07-07T03:43:46.368Z,75.30
2023-07-07T03:46:16.095Z,75.50
2023-07-07T03:48:44.630Z,75.60
2023-07-07T03:51:13.370Z,75.60
2023-07-07T03:53:41.731Z,75.70
2023-07-07T03:56:09.770Z,75.70
2023-07-07T03:58:37.873Z,75.70
2023-07-07T04:01:07.086Z,75.70
2023-07-07T04:03:36.288Z,75.80
2023-07-07T04:06:05.148Z,75.80
2023-07-07T04:08:34.504Z,75.70
2023-07-07T04:11:04.151Z,75.70
2023-07-07T04:13:33.768Z,75.80
2023-07-07T04:16:03.302Z,76.50
2023-07-07T04:18:33.209Z,75.90
2023-07-07T04:21:03.973Z,75.90
2023-07-07T04:23:31.718Z,76.00
2023-07-07T04:25:59.483Z,75.90
2023-07-07T04:28:27.508Z,75.90
2023-07-07T04:30:57.225Z,76.00
2023-07-07T04:33:27.007Z,75.90
2023-07-07T04:35:55.558Z,76.10
2023-07-07T04:38:32.024Z,76.10
2023-07-07T04:41:10.582Z,76.20
2023-07-07T04:43:40.003Z,76.20
2023-07-07T04:46:09.173Z,76.10
2023-07-07T04:48:37.642Z,76.20
2023-07-07T04:51:08.013Z,76.20
2023-07-07T04:53:38.953Z,76.50
2023-07-07T04:56:11.600Z,76.40
2023-07-07T04:58:40.533Z,76.50
2023-07-07T05:01:10.244Z,76.50
2023-07-07T05:03:40.341Z,76.60
2023-07-07T05:06:08.706Z,76.60
2023-07-07T05:08:39.582Z,76.60
2023-07-07T05:11:08.842Z,76.70
2023-07-07T05:13:36.730Z,76.70
2023-07-07T05:16:06.616Z,76.80
2023-07-07T05:18:34.760Z,76.80
2023-07-07T05:21:06.191Z,76.90
2023-07-07T05:23:34.787Z,76.80
2023-07-07T05:26:04.690Z,76.90
2023-07-07T05:28:32.689Z,76.90
2023-07-07T05:31:00.573Z,76.80
2023-07-07T05:33:30.144Z,76.80
2023-07-07T05:36:02.457Z,76.60
2023-07-07T05:38:31.200Z,76.50
2023-07-07T05:40:59.801Z,76.40
2023-07-07T05:43:29.366Z,76.30
2023-07-07T05:45:58.302Z,76.40
2023-07-07T05:48:26.805Z,76.40
2023-07-07T05:50:59.768Z,76.10
2023-07-07T05:53:28.729Z,76.00
2023-07-07T05:56:04.609Z,76.00
2023-07-07T05:58:33.721Z,75.80
2023-07-07T06:01:01.994Z,75.70
2023-07-07T06:03:31.223Z,75.70
2023-07-07T06:05:59.030Z,75.50
2023-07-07T06:08:26.767Z,75.60
2023-07-07T06:10:54.630Z,75.50
2023-07-07T06:13:25.201Z,75.40
2023-07-07T06:15:55.184Z,75.30
2023-07-07T06:18:23.668Z,75.40
2023-07-07T06:20:54.131Z,75.40
2023-07-07T06:23:22.310Z,75.30
2023-07-07T06:25:50.367Z,75.10
2023-07-07T06:28:18.959Z,75.20
2023-07-07T06:30:48.904Z,75.20
2023-07-07T06:33:20.914Z,75.10
2023-07-07T06:35:50.076Z,75.00
2023-07-07T06:38:18.318Z,75.00
2023-07-07T06:40:48.024Z,75.00
2023-07-07T06:43:19.048Z,75.10
2023-07-07T06:45:47.899Z,75.10
2023-07-07T06:48:15.676Z,75.10
2023-07-07T06:50:45.066Z,75.00
2023-07-07T06:53:12.800Z,74.90
2023-07-07T06:55:41.289Z,74.90
2023-07-07T06:58:10.675Z,74.80
2023-07-07T07:00:38.517Z,74.80
2023-07-07T07:03:06.428Z,74.90
2023-07-07T07:05:34.393Z,74.70
2023-07-07T07:08:03.514Z,74.60
2023-07-07T07:10:31.256Z,74.50
2023-07-07T07:12:59.028Z,74.50
2023-07-07T07:15:26.807Z,74.30
2023-07-07T07:17:54.602Z,74.10
2023-07-07T07:20:22.380Z,74.00
2023-07-07T07:22:50.704Z,73.90
2023-07-07T07:25:19.940Z,73.70
2023-07-07T07:27:47.771Z,73.60
2023-07-07T07:30:16.669Z,73.50
2023-07-07T07:32:44.794Z,73.40
2023-07-07T07:35:13.577Z,73.40
2023-07-07T07:37:42.229Z,73.50
2023-07-07T07:40:10.901Z,73.40
2023-07-07T07:42:40.067Z,73.30
2023-07-07T07:45:09.382Z,73.10
2023-07-07T07:47:37.311Z,73.20
2023-07-07T07:50:05.846Z,73.10
2023-07-07T07:52:33.898Z,73.00
2023-07-07T07:55:01.715Z,72.80
2023-07-07T07:57:29.640Z,72.70
2023-07-07T07:59:58.852Z,72.60
2023-07-07T08:02:26.726Z,72.60
2023-07-07T08:04:54.830Z,72.40
2023-07-07T08:07:23.120Z,72.30
2023-07-07T08:09:51.326Z,72.10
2023-07-07T08:12:19.192Z,72.00
2023-07-07T08:14:47.024Z,71.80
2023-07-07T08:17:17.323Z,71.70
2023-07-07T08:19:47.274Z,71.60
2023-07-07T08:22:17.908Z,71.50
2023-07-07T08:24:48.936Z,71.40
2023-07-07T08:29:48.437Z,71.10
2023-07-07T08:32:20.351Z,70.90
2023-07-07T08:34:54.482Z,70.80
2023-07-07T08:37:23.583Z,70.70
2023-07-07T08:39:51.424Z,70.60
2023-07-07T08:42:27.474Z,70.50
2023-07-07T08:44:57.153Z,70.30
2023-07-07T08:47:53.565Z,69.90
2023-07-07T08:50:32.698Z,69.90
2023-07-07T08:53:10.682Z,69.60
2023-07-07T08:55:49.934Z,69.30
2023-07-07T08:58:29.575Z,69.20
2023-07-07T09:01:17.727Z,69.10
2023-07-07T09:04:03.835Z,68.80
2023-07-07T09:06:45.574Z,68.50
2023-07-07T09:09:22.600Z,68.10
2023-07-07T09:12:04.825Z,67.80
2023-07-07T09:14:33.252Z,67.90
2023-07-07T09:17:05.915Z,67.70
2023-07-07T09:19:40.091Z,67.70
2023-07-07T09:22:13.587Z,67.50
2023-07-07T09:24:47.804Z,67.20
2023-07-07T09:27:20.693Z,67.20
2023-07-07T09:29:51.234Z,67.50
2023-07-07T09:32:24.319Z,66.60
2023-07-07T09:34:53.842Z,66.50
2023-07-07T09:37:30.851Z,66.20
2023-07-07T09:40:13.301Z,66.20
2023-07-07T09:42:53.446Z,66.00
2023-07-07T09:45:35.281Z,65.60
2023-07-07T09:48:14.161Z,65.30
2023-07-07T09:50:49.226Z,65.20
2023-07-07T09:53:25.990Z,64.90
2023-07-07T09:55:57.651Z,64.70
2023-07-07T09:58:31.296Z,64.60
2023-07-07T10:01:03.061Z,64.40
2023-07-07T10:03:34.966Z,64.40
2023-07-07T10:06:07.203Z,64.20
2023-07-07T10:08:37.263Z,64.20
2023-07-07T10:13:54.939Z,63.80
2023-07-07T10:16:33.803Z,63.70
2023-07-07T10:19:03.279Z,64.20
2023-07-07T10:21:32.889Z,63.20
2023-07-07T10:24:02.784Z,63.10
2023-07-07T10:26:32.214Z,63.00
2023-07-07T10:29:02.143Z,62.80
2023-07-07T10:31:30.214Z,63.00
2023-07-07T10:34:01.239Z,62.80
2023-07-07T10:36:31.377Z,62.50
2023-07-07T10:39:01.439Z,61.70
2023-07-07T10:41:30.341Z,62.20
2023-07-07T10:43:58.093Z,62.10
2023-07-07T10:46:25.879Z,62.00
2023-07-07T10:48:57.705Z,61.70
2023-07-07T10:51:33.003Z,61.80
2023-07-07T10:54:08.392Z,61.80
2023-07-07T10:56:43.207Z,61.70
2023-07-07T10:59:34.624Z,61.60
2023-07-07T11:02:18.071Z,61.60
2023-07-07T11:05:21.855Z,61.50
2023-07-07T11:07:56.007Z,61.30
2023-07-07T11:10:50.760Z,61.30
2023-07-07T11:13:24.662Z,61.30
2023-07-07T11:16:02.852Z,61.10
2023-07-07T11:18:47.019Z,60.90
2023-07-07T11:21:23.686Z,60.90
2023-07-07T11:24:36.179Z,60.40
2023-07-07T11:27:40.913Z,60.40
2023-07-07T11:30:21.055Z,60.20
2023-07-07T11:32:59.995Z,60.20
2023-07-07T11:35:40.169Z,60.00
2023-07-07T11:38:25.198Z,60.10
2023-07-07T11:41:01.001Z,59.90
2023-07-07T11:44:03.448Z,60.00
2023-07-07T11:46:50.777Z,60.10
2023-07-07T11:49:34.861Z,60.00
2023-07-07T11:52:17.902Z,59.90
2023-07-07T11:54:59.190Z,59.90
2023-07-07T11:57:45.707Z,59.70
2023-07-07T12:00:28.009Z,59.60
2023-07-07T12:02:59.215Z,59.50
2023-07-07T12:05:32.217Z,59.40
2023-07-07T12:08:05.951Z,59.40
2023-07-07T12:10:46.785Z,59.20
2023-07-07T12:13:19.764Z,59.10
2023-07-07T12:15:52.983Z,59.00
2023-07-07T12:18:32.593Z,59.00
2023-07-07T12:21:08.634Z,58.90
2023-07-07T12:23:38.898Z,58.70
2023-07-07T12:26:16.498Z,58.60
2023-07-07T12:28:50.028Z,58.50
2023-07-07T12:31:21.969Z,58.40
2023-07-07T12:33:52.423Z,58.20
2023-07-07T12:36:22.192Z,58.10
2023-07-07T12:38:51.731Z,58.10
2023-07-07T12:41:23.794Z,58.10
2023-07-07T12:43:54.437Z,57.70
2023-07-07T12:46:26.958Z,57.50
2023-07-07T12:48:57.445Z,57.50
2023-07-07T12:51:30.053Z,57.40
2023-07-07T12:53:58.987Z,57.20
2023-07-07T12:56:28.670Z,57.20
2023-07-07T12:58:57.430Z,57.10
2023-07-07T13:01:32.854Z,57.60
2023-07-07T13:04:12.016Z,57.00
2023-07-07T13:06:43.554Z,57.00
2023-07-07T13:09:24.270Z,56.90
2023-07-07T13:11:54.204Z,56.70
2023-07-07T13:14:42.731Z,56.70
2023-07-07T13:17:14.936Z,56.70
2023-07-07T13:19:49.394Z,56.60
2023-07-07T13:22:22.217Z,56.60
2023-07-07T13:24:49.960Z,56.40
2023-07-07T13:27:23.691Z,56.40
2023-07-07T13:29:57.278Z,56.30
2023-07-07T13:32:34.016Z,56.00
2023-07-07T13:35:03.900Z,55.60
2023-07-07T13:37:33.560Z,55.70
2023-07-07T13:40:01.648Z,55.70
2023-07-07T13:42:31.733Z,55.60
2023-07-07T13:45:01.222Z,55.40
2023-07-07T13:47:32.437Z,55.30
2023-07-07T13:50:06.237Z,55.40
2023-07-07T13:52:43.594Z,55.30
2023-07-07T13:55:13.931Z,55.20
2023-07-07T13:57:42.515Z,55.00
2023-07-07T14:00:20.214Z,54.80
2023-07-07T14:02:48.466Z,54.90
2023-07-07T14:05:20.194Z,54.60
2023-07-07T14:07:50.196Z,54.70
2023-07-07T14:10:30.968Z,54.50
2023-07-07T14:12:59.162Z,54.40
2023-07-07T14:15:34.818Z,54.30
2023-07-07T14:18:07.423Z,54.20
2023-07-07T14:20:41.799Z,54.20
2023-07-07T14:23:13.069Z,54.10
2023-07-07T14:25:43.118Z,53.80
2023-07-07T14:28:16.310Z,53.80
2023-07-07T14:30:50.317Z,53.90
2023-07-07T14:33:27.663Z,53.80
2023-07-07T14:35:59.084Z,53.60
2023-07-07T14:38:35.527Z,53.50
2023-07-07T14:41:11.669Z,53.40
2023-07-07T14:43:42.296Z,53.20
2023-07-07T14:46:16.323Z,53.00
2023-07-07T14:48:50.299Z,53.00
2023-07-07T14:51:22.579Z,52.80
2023-07-07T14:53:56.726Z,52.60
2023-07-07T14:56:30.004Z,52.60
2023-07-07T14:58:59.256Z,52.30
2023-07-07T15:01:30.479Z,52.30
2023-07-07T15:04:00.924Z,52.10
2023-07-07T15:06:35.166Z,52.00
2023-07-07T15:09:05.658Z,51.80
2023-07-07T15:11:35.914Z,51.80
2023-07-07T15:14:05.401Z,51.80
2023-07-07T15:16:34.122Z,51.70
2023-07-07T15:19:08.016Z,51.50
2023-07-07T15:21:37.306Z,51.50
2023-07-07T15:24:05.462Z,51.10
2023-07-07T15:26:33.228Z,51.20
2023-07-07T15:29:02.143Z,51.00
2023-07-07T15:31:30.094Z,50.60
2023-07-07T15:33:57.908Z,50.50
2023-07-07T15:36:26.065Z,50.60
2023-07-07T15:38:58.644Z,50.40
2023-07-07T15:41:29.066Z,50.20
2023-07-07T15:43:57.647Z,50.50
2023-07-07T15:46:31.997Z,50.00
2023-07-07T15:48:59.783Z,49.90
2023-07-07T15:51:34.397Z,50.00
2023-07-07T15:54:05.350Z,50.20
2023-07-07T15:56:35.326Z,50.20
2023-07-07T15:59:05.583Z,49.90
2023-07-07T16:01:33.332Z,49.90
2023-07-07T16:04:01.283Z,49.70
2023-07-07T16:06:29.301Z,49.50
2023-07-07T16:08:57.050Z,49.50
2023-07-07T16:11:26.238Z,49.30
2023-07-07T16:13:55.124Z,49.20
2023-07-07T16:16:24.738Z,49.20
2023-07-07T16:18:52.637Z,49.20
2023-07-07T16:21:22.854Z,49.00
2023-07-07T16:23:51.568Z,48.90
2023-07-07T16:26:28.506Z,48.60
2023-07-07T16:28:57.631Z,48.10
2023-07-07T16:31:27.912Z,47.80
2023-07-07T16:33:55.776Z,47.90
2023-07-07T16:36:25.539Z,47.70
2023-07-07T16:38:54.238Z,47.30
2023-07-07T16:41:24.734Z,46.80
2023-07-07T16:43:56.099Z,46.50
2023-07-07T16:46:24.801Z,46.70
2023-07-07T16:48:54.826Z,46.30
2023-07-07T16:51:24.185Z,46.70
2023-07-07T16:53:52.261Z,47.00
2023-07-07T16:56:24.117Z,47.00
2023-07-07T16:58:53.308Z,47.10
2023-07-07T17:01:22.091Z,47.20
2023-07-07T17:03:50.001Z,47.10
2023-07-07T17:06:24.702Z,47.10
2023-07-07T17:08:53.167Z,46.90
2023-07-07T17:11:20.914Z,46.40
2023-07-07T17:13:48.840Z,46.60
2023-07-07T17:16:23.490Z,46.90
2023-07-07T17:18:53.023Z,47.20
2023-07-07T17:21:22.224Z,47.50
2023-07-07T17:23:51.149Z,47.60
2023-07-07T17:26:21.039Z,47.90
2023-07-07T17:28:48.836Z,48.00
2023-07-07T17:31:18.797Z,48.20
2023-07-07T17:33:48.272Z,48.30
2023-07-07T17:36:21.233Z,48.40
2023-07-07T17:38:50.004Z,48.60
2023-07-07T17:41:19.162Z,48.70
2023-07-07T17:43:47.073Z,48.90
2023-07-07T17:46:27.156Z,49.00
2023-07-07T17:48:58.845Z,49.10
2023-07-07T17:51:28.432Z,49.10
2023-07-07T17:53:58.031Z,49.10
2023-07-07T17:56:28.299Z,49.20
2023-07-07T17:58:56.095Z,49.30
2023-07-07T18:01:24.611Z,49.30
2023-07-07T18:03:52.837Z,49.40
2023-07-07T18:06:24.928Z,49.60
2023-07-07T18:08:53.681Z,49.70
2023-07-07T18:11:27.006Z,49.90
2023-07-07T18:13:55.262Z,49.90
2023-07-07T18:16:24.918Z,49.90
2023-07-07T18:19:32.448Z,49.90
2023-07-07T18:21:54.083Z,50.00
2023-07-07T18:24:24.102Z,50.00
2023-07-07T18:26:53.873Z,50.60
2023-07-07T18:29:23.858Z,50.00
2023-07-07T18:31:52.485Z,50.10
2023-07-07T18:34:20.236Z,50.20
2023-07-07T18:36:51.009Z,50.20
2023-07-07T18:39:24.494Z,50.20
2023-07-07T18:41:53.138Z,50.40
2023-07-07T18:44:22.087Z,50.40
2023-07-07T18:46:50.614Z,50.60
2023-07-07T18:49:18.928Z,50.70
2023-07-07T18:51:47.439Z,50.70
2023-07-07T18:54:18.702Z,50.80
2023-07-07T18:56:48.374Z,51.50
2023-07-07T18:59:18.912Z,51.10
2023-07-07T19:01:46.993Z,51.20
2023-07-07T19:04:14.809Z,51.20
2023-07-07T19:06:44.574Z,51.40
2023-07-07T19:09:18.655Z,51.60
2023-07-07T19:11:50.009Z,51.60
2023-07-07T19:14:18.130Z,51.80
2023-07-07T19:16:46.413Z,51.90
2023-07-07T19:19:20.395Z,52.00
2023-07-07T19:21:48.172Z,52.10
2023-07-07T19:24:15.916Z,52.20
2023-07-07T19:26:48.565Z,52.30
2023-07-07T19:29:16.368Z,52.50
2023-07-07T19:31:44.299Z,52.50
2023-07-07T19:34:13.260Z,52.70
2023-07-07T19:36:43.343Z,52.80
2023-07-07T19:39:16.459Z,52.90
2023-07-07T19:41:46.454Z,53.00
2023-07-07T19:44:14.560Z,53.10
2023-07-07T19:46:43.983Z,53.30
2023-07-07T19:49:17.475Z,53.30
2023-07-07T19:51:45.526Z,53.40
2023-07-07T19:54:13.304Z,53.60
2023-07-07T19:56:41.373Z,53.60
2023-07-07T19:59:19.564Z,53.70
2023-07-07T20:01:48.883Z,53.80
2023-07-07T20:04:18.633Z,53.90
2023-07-07T20:06:47.549Z,54.00
2023-07-07T20:09:17.367Z,54.10
2023-07-07T20:11:46.037Z,54.20
2023-07-07T20:14:15.239Z,54.30
2023-07-07T20:16:45.112Z,54.40
2023-07-07T20:19:14.308Z,54.50
2023-07-07T20:21:42.351Z,54.50
2023-07-07T20:24:15.733Z,54.60
2023-07-07T20:26:46.699Z,54.70
2023-07-07T20:29:18.133Z,54.80
2023-07-07T20:31:47.091Z,54.80
2023-07-07T20:34:17.174Z,54.90
2023-07-07T20:36:46.882Z,55.00
2023-07-07T20:39:16.686Z,55.10
2023-07-07T20:41:45.220Z,55.20
2023-07-07T20:44:13.049Z,55.20
2023-07-07T20:46:44.235Z,55.30
2023-07-07T20:49:14.835Z,55.40
2023-07-07T20:51:43.059Z,55.50
2023-07-07T20:54:11.018Z,55.60
2023-07-07T20:56:39.243Z,55.60
2023-07-07T20:59:21.562Z,55.60
2023-07-07T21:01:55.477Z,55.70
2023-07-07T21:04:23.718Z,55.60
2023-07-07T21:06:51.560Z,55.80
2023-07-07T21:09:20.056Z,55.90
2023-07-07T21:11:47.912Z,55.80
2023-07-07T21:14:15.721Z,55.90
2023-07-07T21:16:46.968Z,56.00
2023-07-07T21:19:16.799Z,56.00
2023-07-07T21:21:44.565Z,56.10
2023-07-07T21:24:12.354Z,56.10
2023-07-07T21:26:40.288Z,56.20
2023-07-07T21:29:11.135Z,56.90
2023-07-07T21:31:39.905Z,56.30
2023-07-07T21:34:08.143Z,56.30
2023-07-07T21:36:39.725Z,56.50
2023-07-07T21:39:25.973Z,56.50
2023-07-07T21:42:06.857Z,56.70
2023-07-07T21:44:39.891Z,56.70
2023-07-07T21:47:07.750Z,56.70
2023-07-07T21:49:35.489Z,56.80
2023-07-07T21:52:14.195Z,56.90
2023-07-07T21:54:41.991Z,56.90
2023-07-07T21:57:36.535Z,56.90
2023-07-07T22:00:11.341Z,57.00
2023-07-07T22:02:39.092Z,57.10
2023-07-07T22:05:06.971Z,57.20
2023-07-07T22:07:36.031Z,57.20
2023-07-07T22:10:34.621Z,57.30
2023-07-07T22:13:02.362Z,57.30
2023-07-07T22:15:30.247Z,57.30
2023-07-07T22:17:58.138Z,57.40
2023-07-07T22:20:33.814Z,57.40
2023-07-07T22:23:03.791Z,57.50
2023-07-07T22:25:33.915Z,57.50
2023-07-07T22:28:02.288Z,57.50
2023-07-07T22:30:34.456Z,57.60
2023-07-07T22:33:03.857Z,57.50
2023-07-07T22:35:32.011Z,57.60
2023-07-07T22:37:59.770Z,57.60
2023-07-07T22:40:31.567Z,57.60
2023-07-07T22:42:59.391Z,57.70
2023-07-07T22:45:27.696Z,57.70
2023-07-07T22:47:56.095Z,57.60
2023-07-07T22:50:26.214Z,57.70
2023-07-07T22:52:54.084Z,57.80
2023-07-07T22:55:23.697Z,57.80
2023-07-07T22:57:53.973Z,57.80
2023-07-07T23:00:25.029Z,57.80
2023-07-07T23:02:52.826Z,57.80
2023-07-07T23:05:21.911Z,57.80
2023-07-07T23:07:49.783Z,57.80
2023-07-07T23:10:19.578Z,57.80
2023-07-07T23:12:48.254Z,57.80
2023-07-07T23:15:19.369Z,58.00
2023-07-07T23:17:47.713Z,58.00
2023-07-07T23:20:18.746Z,58.10
2023-07-07T23:22:46.896Z,58.10
2023-07-07T23:25:15.364Z,58.70
2023-07-07T23:27:50.114Z,58.10
2023-07-07T23:30:38.121Z,58.10
2023-07-07T23:33:06.286Z,58.10
2023-07-07T23:35:34.635Z,58.10
2023-07-07T23:38:02.356Z,58.20
2023-07-07T23:40:31.898Z,58.20
2023-07-07T23:42:59.754Z,58.20
2023-07-07T23:45:30.022Z,58.20
2023-07-07T23:48:01.307Z,58.30
2023-07-07T23:50:33.522Z,58.30
2023-07-07T23:53:01.425Z,58.30
2023-07-07T23:55:32.426Z,58.40
2023-07-07T23:58:00.964Z,58.40
